Time;durP1;ratioP1;P1;durP2;ratioP2;P2;SDS_P1;SDS_P2;PMS_P1;PMS_P2;Temp;Humidity;BMP_temperature;BMP_pressure;BME280_temperature;BME280_humidity;BME280_pressure;Samples;Min_cycle;Max_cycle;Signal;HPM_P1;HPM_P2
2021/10/22 00:00:05;;;;;;;;;;;;;;;;;;344281;28;1412;-83
2021/10/22 00:00:16;;;;;;;;;;;;;;;;;;347103;28;844;-83
2021/10/22 00:00:27;;;;;;;;;;;;;;;;;;347065;28;854;-81
2021/10/22 00:00:46;;;;;;;;;;;;;;;;;;345686;28;901;-82
2021/10/22 00:01:06;;;;;;;;;;;;;;;;;;347090;28;997;-82
2021/10/22 00:01:37;;;;;;;;;;;;;;;;;;347026;28;960;-81
2021/10/22 00:01:47;;;;;;;;;;;;;;;;;;347108;28;854;-82
2021/10/22 00:02:13;;;;;;;;;;;;;;;;;;346723;28;913;-82
2021/10/22 00:02:24;;;;;;;;;;;;;;;;;;349396;28;1214;-81
2021/10/22 00:02:49;;;;;;;;;;;;;;;;;;348360;28;1691;-82
2021/10/22 00:03:00;;;;;;;;;;;;;;;;;;348476;28;869;-82
2021/10/22 00:03:11;;;;;;;;;;;;;;;;;;348481;28;849;-81
2021/10/22 00:03:37;;;;;;;;;;;;;;;;;;345583;28;1698;-83
2021/10/22 00:03:47;;;;;;;;;;;;;;;;;;347033;28;925;-82
2021/10/22 00:03:58;;;;;;;;;;;;;;;;;;347050;28;940;-84
2021/10/22 00:04:08;;;;;;;;;;;;;;;;;;347129;28;807;-82
2021/10/22 00:04:19;;;;;;;;;;;;;;;;;;346957;28;1184;-82
2021/10/22 00:04:29;;;;;;;;;;;;;;;;;;349852;28;904;-80
2021/10/22 00:04:55;;;;;;;;;;;;;;;;;;348475;28;936;-82
2021/10/22 00:05:21;;;;;;;;;;;;;;;;;;348389;28;1360;-80
2021/10/22 00:05:33;;;;;;;;;;;;;;;;;;348471;28;810;-81
2021/10/22 00:05:43;;;;;;;;;;;;;;;;;;348360;28;889;-79
2021/10/22 00:05:54;;;;;;;;;;;;;;;;;;347003;28;996;-80
2021/10/22 00:06:04;;;;;;;;;;;;;;;;;;347019;28;985;-80
2021/10/22 00:06:14;;;;;;;;;;;;;;;;;;348454;28;913;-80
2021/10/22 00:06:25;;;;;;;;;;;;;;;;;;347829;28;991;-77
2021/10/22 00:07:17;;;;;;;;;;;;;;;;;;347094;28;798;-79
2021/10/22 00:07:27;;;;;;;;;;;;;;;;;;347048;28;929;-80
2021/10/22 00:07:38;;;;;;;;;;;;;;;;;;348411;28;921;-79
2021/10/22 00:07:48;;;;;;;;;;;;;;;;;;346986;28;1116;-80
2021/10/22 00:08:14;;;;;;;;;;;;;;;;;;347120;28;831;-79
2021/10/22 00:08:25;;;;;;;;;;;;;;;;;;348355;28;786;-81
2021/10/22 00:09:03;;;;;;;;;;;;;;;;;;348471;28;830;-81
2021/10/22 00:09:29;;;;;;;;;;;;;;;;;;349828;28;901;-80
2021/10/22 00:09:39;;;;;;;;;;;;;;;;;;347101;28;869;-80
2021/10/22 00:09:50;;;;;;;;;;;;;;;;;;348266;28;1436;-80
2021/10/22 00:10:27;;;;;;;;;;;;;;;;;;347109;28;1032;-79
2021/10/22 00:10:37;;;;;;;;;;;;;;;;;;346988;28;936;-79
2021/10/22 00:11:13;;;;;;;;;;;;;;;;;;348345;28;1343;-78
2021/10/22 00:11:24;;;;;;;;;;;;;;;;;;345736;28;917;-79
2021/10/22 00:11:36;;;;;;;;;;;;;;;;;;346976;28;1137;-79
2021/10/22 00:11:47;;;;;;;;;;;;;;;;;;345657;28;1965;-78
2021/10/22 00:12:00;;;;;;;;;;;;;;;;;;344316;28;949;-81
2021/10/22 00:12:10;;;;;;;;;;;;;;;;;;343139;28;1435;-77
2021/10/22 00:12:21;;;;;;;;;;;;;;;;;;345684;28;968;-80
2021/10/22 00:12:31;;;;;;;;;;;;;;;;;;345652;28;1530;-81
2021/10/22 00:12:41;;;;;;;;;;;;;;;;;;345732;28;909;-79
2021/10/22 00:12:52;;;;;;;;;;;;;;;;;;345691;28;945;-78
2021/10/22 00:13:02;;;;;;;;;;;;;;;;;;343001;28;921;-80
2021/10/22 00:13:28;;;;;;;;;;;;;;;;;;345788;28;835;-81
2021/10/22 00:13:39;;;;;;;;;;;;;;;;;;345712;28;819;-79
2021/10/22 00:14:04;;;;;;;;;;;;;;;;;;345721;28;834;-79
2021/10/22 00:14:30;;;;;;;;;;;;;;;;;;345684;28;826;-81
2021/10/22 00:15:18;;;;;;;;;;;;;;;;;;347033;28;949;-81
2021/10/22 00:15:29;;;;;;;;;;;;;;;;;;348425;28;1422;-80
2021/10/22 00:15:40;;;;;;;;;;;;;;;;;;347093;28;929;-80
2021/10/22 00:15:50;;;;;;;;;;;;;;;;;;345553;28;1556;-79
2021/10/22 00:16:01;;;;;;;;;;;;;;;;;;345586;28;830;-77
2021/10/22 00:16:11;;;;;;;;;;;;;;;;;;344270;28;1324;-80
2021/10/22 00:16:21;;;;;;;;;;;;;;;;;;347068;28;1028;-79
2021/10/22 00:16:32;;;;;;;;;;;;;;;;;;347100;28;810;-79
2021/10/22 00:16:43;;;;;;;;;;;;;;;;;;347002;28;1378;-79
2021/10/22 00:16:54;;;;;;;;;;;;;;;;;;347145;28;791;-79
2021/10/22 00:17:04;;;;;;;;;;;;;;;;;;346987;28;1167;-79
2021/10/22 00:17:30;;;;;;;;;;;;;;;;;;345621;28;858;-80
2021/10/22 00:17:40;;;;;;;;;;;;;;;;;;345733;28;854;-78
2021/10/22 00:17:51;;;;;;;;;;;;;;;;;;345742;28;1040;-76
2021/10/22 00:18:01;;;;;;;;;;;;;;;;;;345723;28;996;-81
2021/10/22 00:18:37;;;;;;;;;;;;;;;;;;347084;28;1000;-81
2021/10/22 00:18:54;;;;;;;;;;;;;;;;;;344363;28;1304;-82
2021/10/22 00:19:04;;;;;;;;;;;;;;;;;;343014;28;981;-79
2021/10/22 00:19:14;;;;;;;;;;;;;;;;;;345674;28;973;-80
2021/10/22 00:19:34;;;;;;;;;;;;;;;;;;345536;28;1001;-79
2021/10/22 00:19:47;;;;;;;;;;;;;;;;;;345711;28;842;-80
2021/10/22 00:20:13;;;;;;;;;;;;;;;;;;345801;28;803;-78
2021/10/22 00:20:24;;;;;;;;;;;;;;;;;;345777;28;839;-81
2021/10/22 00:20:34;;;;;;;;;;;;;;;;;;348337;28;1183;-81
2021/10/22 00:20:44;;;;;;;;;;;;;;;;;;347060;28;882;-80
2021/10/22 00:20:55;;;;;;;;;;;;;;;;;;347090;28;869;-81
2021/10/22 00:21:05;;;;;;;;;;;;;;;;;;348336;28;1012;-81
2021/10/22 00:21:16;;;;;;;;;;;;;;;;;;345665;28;1377;-79
2021/10/22 00:21:42;;;;;;;;;;;;;;;;;;347019;28;985;-81
2021/10/22 00:21:52;;;;;;;;;;;;;;;;;;345704;28;818;-84
2021/10/22 00:22:03;;;;;;;;;;;;;;;;;;345704;28;834;-83
2021/10/22 00:22:55;;;;;;;;;;;;;;;;;;345650;28;945;-82
2021/10/22 00:23:06;;;;;;;;;;;;;;;;;;344359;28;951;-80
2021/10/22 00:23:16;;;;;;;;;;;;;;;;;;342917;28;1021;-80
2021/10/22 00:23:26;;;;;;;;;;;;;;;;;;344262;28;981;-80
2021/10/22 00:23:37;;;;;;;;;;;;;;;;;;345556;28;1331;-81
2021/10/22 00:23:47;;;;;;;;;;;;;;;;;;347086;28;988;-80
2021/10/22 00:23:57;;;;;;;;;;;;;;;;;;348263;28;1262;-80
2021/10/22 00:24:33;;;;;;;;;;;;;;;;;;347098;28;1020;-80
2021/10/22 00:24:53;;;;;;;;;;;;;;;;;;345689;28;929;-77
2021/10/22 00:25:16;;;;;;;;;;;;;;;;;;344385;28;819;-81
2021/10/22 00:26:18;;;;;;;;;;;;;;;;;;345694;28;1211;-79
2021/10/22 00:26:37;;;;;;;;;;;;;;;;;;347026;28;1430;-80
2021/10/22 00:27:03;;;;;;;;;;;;;;;;;;348446;28;821;-81
2021/10/22 00:27:29;;;;;;;;;;;;;;;;;;348462;28;1004;-81
2021/10/22 00:27:39;;;;;;;;;;;;;;;;;;348377;28;905;-81
2021/10/22 00:27:50;;;;;;;;;;;;;;;;;;348454;28;1047;-81
2021/10/22 00:28:00;;;;;;;;;;;;;;;;;;348396;28;1028;-80
2021/10/22 00:28:20;;;;;;;;;;;;;;;;;;346960;28;1730;-80
2021/10/22 00:28:36;;;;;;;;;;;;;;;;;;344304;28;890;-83
2021/10/22 00:28:49;;;;;;;;;;;;;;;;;;344266;28;1293;-80
2021/10/22 00:28:59;;;;;;;;;;;;;;;;;;344341;28;1189;-82
2021/10/22 00:29:10;;;;;;;;;;;;;;;;;;345778;28;787;-80
2021/10/22 00:29:36;;;;;;;;;;;;;;;;;;348425;28;818;-79
2021/10/22 00:29:46;;;;;;;;;;;;;;;;;;348447;28;940;-79
2021/10/22 00:30:12;;;;;;;;;;;;;;;;;;347095;28;960;-82
2021/10/22 00:30:38;;;;;;;;;;;;;;;;;;344359;28;965;-82
2021/10/22 00:30:48;;;;;;;;;;;;;;;;;;346718;28;933;-80
2021/10/22 00:30:59;;;;;;;;;;;;;;;;;;347061;28;945;-81
2021/10/22 00:31:15;;;;;;;;;;;;;;;;;;345628;28;973;-80
2021/10/22 00:31:40;;;;;;;;;;;;;;;;;;344253;28;799;-79
2021/10/22 00:31:51;;;;;;;;;;;;;;;;;;344647;28;1899;-80
2021/10/22 00:32:01;;;;;;;;;;;;;;;;;;348311;28;1343;-79
2021/10/22 00:32:12;;;;;;;;;;;;;;;;;;346946;28;1288;-80
2021/10/22 00:32:57;;;;;;;;;;;;;;;;;;348409;28;917;-77
2021/10/22 00:33:08;;;;;;;;;;;;;;;;;;345687;28;1348;-77
2021/10/22 00:34:00;;;;;;;;;;;;;;;;;;345755;28;1019;-78
2021/10/22 00:34:10;;;;;;;;;;;;;;;;;;344375;28;929;-77
2021/10/22 00:34:21;;;;;;;;;;;;;;;;;;345216;28;957;-77
2021/10/22 00:34:31;;;;;;;;;;;;;;;;;;344308;28;1580;-75
2021/10/22 00:34:41;;;;;;;;;;;;;;;;;;344104;28;1415;-77
2021/10/22 00:35:10;;;;;;;;;;;;;;;;;;344346;28;996;-79
2021/10/22 00:35:21;;;;;;;;;;;;;;;;;;345581;28;1241;-81
2021/10/22 00:35:31;;;;;;;;;;;;;;;;;;344344;28;889;-78
2021/10/22 00:36:01;;;;;;;;;;;;;;;;;;344290;28;909;-77
2021/10/22 00:36:36;;;;;;;;;;;;;;;;;;345687;28;846;-78
2021/10/22 00:36:47;;;;;;;;;;;;;;;;;;347116;28;996;-79
2021/10/22 00:36:58;;;;;;;;;;;;;;;;;;347035;28;735;-75
2021/10/22 00:37:08;;;;;;;;;;;;;;;;;;345726;28;1485;-79
2021/10/22 00:37:21;;;;;;;;;;;;;;;;;;345574;28;976;-79
2021/10/22 00:37:31;;;;;;;;;;;;;;;;;;345746;28;842;-81
2021/10/22 00:37:41;;;;;;;;;;;;;;;;;;345636;28;1231;-80
2021/10/22 00:37:52;;;;;;;;;;;;;;;;;;345619;28;1256;-80
2021/10/22 00:38:02;;;;;;;;;;;;;;;;;;344275;28;941;-79
2021/10/22 00:38:19;;;;;;;;;;;;;;;;;;344280;28;1462;-81
2021/10/22 00:38:29;;;;;;;;;;;;;;;;;;344387;28;866;-80
2021/10/22 00:38:55;;;;;;;;;;;;;;;;;;344285;28;989;-82
2021/10/22 00:39:07;;;;;;;;;;;;;;;;;;341561;29;1236;-81
2021/10/22 00:39:18;;;;;;;;;;;;;;;;;;341706;29;949;-83
2021/10/22 00:40:06;;;;;;;;;;;;;;;;;;344358;28;969;-82
2021/10/22 00:40:16;;;;;;;;;;;;;;;;;;347031;28;1003;-81
2021/10/22 00:40:52;;;;;;;;;;;;;;;;;;345786;28;877;-80
2021/10/22 00:41:03;;;;;;;;;;;;;;;;;;347111;28;813;-83
2021/10/22 00:41:17;;;;;;;;;;;;;;;;;;345703;28;830;-82
2021/10/22 00:41:27;;;;;;;;;;;;;;;;;;348334;28;972;-83
2021/10/22 00:41:56;;;;;;;;;;;;;;;;;;347147;28;656;-84
2021/10/22 00:42:07;;;;;;;;;;;;;;;;;;347015;28;1032;-83
2021/10/22 00:42:33;;;;;;;;;;;;;;;;;;347030;28;928;-83
2021/10/22 00:42:43;;;;;;;;;;;;;;;;;;346973;28;1491;-81
2021/10/22 00:42:54;;;;;;;;;;;;;;;;;;344402;28;916;-82
2021/10/22 00:43:08;;;;;;;;;;;;;;;;;;343036;28;869;-80
2021/10/22 00:43:18;;;;;;;;;;;;;;;;;;345700;28;854;-83
2021/10/22 00:43:31;;;;;;;;;;;;;;;;;;347029;28;975;-83
2021/10/22 00:43:47;;;;;;;;;;;;;;;;;;346940;28;1502;-83
2021/10/22 00:44:13;;;;;;;;;;;;;;;;;;346656;28;1259;-81
2021/10/22 00:44:23;;;;;;;;;;;;;;;;;;347025;28;1105;-82
2021/10/22 00:44:42;;;;;;;;;;;;;;;;;;344016;28;857;-83
2021/10/22 00:44:53;;;;;;;;;;;;;;;;;;345412;28;1679;-81
2021/10/22 00:45:19;;;;;;;;;;;;;;;;;;347019;28;924;-80
2021/10/22 00:45:29;;;;;;;;;;;;;;;;;;344403;28;1479;-83
2021/10/22 00:46:07;;;;;;;;;;;;;;;;;;347026;28;991;-82
2021/10/22 00:46:34;;;;;;;;;;;;;;;;;;347069;28;767;-81
2021/10/22 00:47:00;;;;;;;;;;;;;;;;;;349703;28;810;-82
2021/10/22 00:47:10;;;;;;;;;;;;;;;;;;349835;28;984;-82
2021/10/22 00:47:21;;;;;;;;;;;;;;;;;;346686;28;1315;-81
2021/10/22 00:47:31;;;;;;;;;;;;;;;;;;344276;28;1256;-82
2021/10/22 00:47:43;;;;;;;;;;;;;;;;;;344335;28;913;-83
2021/10/22 00:47:56;;;;;;;;;;;;;;;;;;345740;28;897;-81
2021/10/22 00:48:22;;;;;;;;;;;;;;;;;;346848;28;1608;-82
2021/10/22 00:48:35;;;;;;;;;;;;;;;;;;347102;28;810;-79
2021/10/22 00:49:01;;;;;;;;;;;;;;;;;;344269;28;1565;-77
2021/10/22 00:49:11;;;;;;;;;;;;;;;;;;344342;28;977;-79
2021/10/22 00:49:22;;;;;;;;;;;;;;;;;;345728;28;822;-81
2021/10/22 00:49:32;;;;;;;;;;;;;;;;;;345625;28;1012;-78
2021/10/22 00:49:43;;;;;;;;;;;;;;;;;;345729;28;995;-78
2021/10/22 00:49:56;;;;;;;;;;;;;;;;;;345586;28;911;-83
2021/10/22 00:50:21;;;;;;;;;;;;;;;;;;345520;28;1279;-80
2021/10/22 00:50:41;;;;;;;;;;;;;;;;;;345917;28;810;-80
2021/10/22 00:50:55;;;;;;;;;;;;;;;;;;343286;28;1301;-79
2021/10/22 00:51:21;;;;;;;;;;;;;;;;;;345953;28;814;-81
2021/10/22 00:51:31;;;;;;;;;;;;;;;;;;345971;28;928;-80
2021/10/22 00:51:42;;;;;;;;;;;;;;;;;;345819;28;996;-78
2021/10/22 00:51:55;;;;;;;;;;;;;;;;;;345590;28;1973;-80
2021/10/22 00:52:05;;;;;;;;;;;;;;;;;;345762;28;1722;-76
2021/10/22 00:52:16;;;;;;;;;;;;;;;;;;344602;28;905;-79
2021/10/22 00:52:27;;;;;;;;;;;;;;;;;;341973;29;823;-76
2021/10/22 00:53:04;;;;;;;;;;;;;;;;;;345980;28;936;-80
2021/10/22 00:53:14;;;;;;;;;;;;;;;;;;345938;28;961;-79
2021/10/22 00:53:25;;;;;;;;;;;;;;;;;;346014;28;834;-80
2021/10/22 00:53:39;;;;;;;;;;;;;;;;;;345969;28;861;-78
2021/10/22 00:53:55;;;;;;;;;;;;;;;;;;344607;28;1024;-79
2021/10/22 00:54:05;;;;;;;;;;;;;;;;;;344599;28;807;-80
2021/10/22 00:54:16;;;;;;;;;;;;;;;;;;344602;28;910;-83
2021/10/22 00:54:54;;;;;;;;;;;;;;;;;;345942;28;822;-80
2021/10/22 00:55:04;;;;;;;;;;;;;;;;;;345785;28;992;-80
2021/10/22 00:55:15;;;;;;;;;;;;;;;;;;345968;28;873;-81
2021/10/22 00:55:25;;;;;;;;;;;;;;;;;;345920;28;1044;-80
2021/10/22 00:55:36;;;;;;;;;;;;;;;;;;345951;28;960;-79
2021/10/22 00:55:46;;;;;;;;;;;;;;;;;;345965;28;845;-78
2021/10/22 00:55:56;;;;;;;;;;;;;;;;;;341900;28;1394;-80
2021/10/22 00:56:07;;;;;;;;;;;;;;;;;;343260;28;1032;-79
2021/10/22 00:56:18;;;;;;;;;;;;;;;;;;344583;28;830;-76
2021/10/22 00:56:28;;;;;;;;;;;;;;;;;;344591;28;897;-79
2021/10/22 00:57:20;;;;;;;;;;;;;;;;;;343240;28;855;-79
2021/10/22 00:57:46;;;;;;;;;;;;;;;;;;343228;28;513;-79
2021/10/22 00:57:57;;;;;;;;;;;;;;;;;;344356;28;909;-77
2021/10/22 00:58:07;;;;;;;;;;;;;;;;;;344803;28;810;-77
2021/10/22 00:58:44;;;;;;;;;;;;;;;;;;347758;28;893;-81
2021/10/22 00:58:55;;;;;;;;;;;;;;;;;;347291;28;976;-80
2021/10/22 00:59:06;;;;;;;;;;;;;;;;;;347190;28;1263;-77
2021/10/22 00:59:16;;;;;;;;;;;;;;;;;;347363;28;949;-80
2021/10/22 00:59:27;;;;;;;;;;;;;;;;;;345789;28;1397;-80
2021/10/22 00:59:38;;;;;;;;;;;;;;;;;;346003;28;814;-80
2021/10/22 01:00:03;;;;;;;;;;;;;;;;;;343226;28;843;-82
2021/10/22 01:00:29;;;;;;;;;;;;;;;;;;343219;28;977;-80
2021/10/22 01:00:40;;;;;;;;;;;;;;;;;;344641;28;873;-81
2021/10/22 01:01:21;;;;;;;;;;;;;;;;;;344453;28;1283;-81
2021/10/22 01:01:37;;;;;;;;;;;;;;;;;;344963;28;917;-79
2021/10/22 01:02:13;;;;;;;;;;;;;;;;;;347233;28;929;-82
2021/10/22 01:02:40;;;;;;;;;;;;;;;;;;348702;28;844;-83
2021/10/22 01:02:50;;;;;;;;;;;;;;;;;;347231;28;1198;-79
2021/10/22 01:03:16;;;;;;;;;;;;;;;;;;345835;28;1447;-78
2021/10/22 01:03:26;;;;;;;;;;;;;;;;;;344538;28;1196;-80
2021/10/22 01:03:36;;;;;;;;;;;;;;;;;;345914;28;968;-79
2021/10/22 01:03:47;;;;;;;;;;;;;;;;;;344495;28;1447;-77
2021/10/22 01:03:57;;;;;;;;;;;;;;;;;;345840;28;985;-77
2021/10/22 01:04:08;;;;;;;;;;;;;;;;;;344509;28;1325;-77
2021/10/22 01:04:28;;;;;;;;;;;;;;;;;;345980;28;795;-79
2021/10/22 01:04:39;;;;;;;;;;;;;;;;;;343279;28;970;-80
2021/10/22 01:04:49;;;;;;;;;;;;;;;;;;343269;28;1041;-82
2021/10/22 01:05:00;;;;;;;;;;;;;;;;;;342909;28;1324;-81
2021/10/22 01:05:13;;;;;;;;;;;;;;;;;;344459;28;1283;-81
2021/10/22 01:05:39;;;;;;;;;;;;;;;;;;344612;28;822;-81
2021/10/22 01:05:55;;;;;;;;;;;;;;;;;;345933;28;1000;-82
2021/10/22 01:06:21;;;;;;;;;;;;;;;;;;345884;28;870;-81
2021/10/22 01:06:31;;;;;;;;;;;;;;;;;;346049;28;1314;-82
2021/10/22 01:06:41;;;;;;;;;;;;;;;;;;345962;28;1028;-82
2021/10/22 01:06:52;;;;;;;;;;;;;;;;;;347036;28;1482;-78
2021/10/22 01:07:03;;;;;;;;;;;;;;;;;;345743;28;1327;-81
2021/10/22 01:07:14;;;;;;;;;;;;;;;;;;344534;28;1000;-79
2021/10/22 01:07:25;;;;;;;;;;;;;;;;;;344627;28;894;-81
2021/10/22 01:07:39;;;;;;;;;;;;;;;;;;345713;28;1454;-82
2021/10/22 01:07:50;;;;;;;;;;;;;;;;;;345966;28;885;-81
2021/10/22 01:08:00;;;;;;;;;;;;;;;;;;343299;28;873;-82
2021/10/22 01:08:11;;;;;;;;;;;;;;;;;;341890;28;945;-81
2021/10/22 01:08:21;;;;;;;;;;;;;;;;;;341780;28;1040;-80
2021/10/22 01:08:32;;;;;;;;;;;;;;;;;;345840;28;1346;-80
2021/10/22 01:08:42;;;;;;;;;;;;;;;;;;347276;28;893;-82
2021/10/22 01:09:08;;;;;;;;;;;;;;;;;;347317;28;806;-80
2021/10/22 01:09:19;;;;;;;;;;;;;;;;;;345851;28;1309;-80
2021/10/22 01:09:55;;;;;;;;;;;;;;;;;;344514;28;799;-80
2021/10/22 01:10:06;;;;;;;;;;;;;;;;;;347306;28;849;-80
2021/10/22 01:10:17;;;;;;;;;;;;;;;;;;347210;28;1410;-81
2021/10/22 01:10:39;;;;;;;;;;;;;;;;;;344486;28;1154;-82
2021/10/22 01:10:50;;;;;;;;;;;;;;;;;;344575;28;945;-81
2021/10/22 01:11:00;;;;;;;;;;;;;;;;;;345997;28;842;-80
2021/10/22 01:11:11;;;;;;;;;;;;;;;;;;347202;28;1466;-78
2021/10/22 01:11:37;;;;;;;;;;;;;;;;;;348329;28;1312;-82
2021/10/22 01:11:48;;;;;;;;;;;;;;;;;;348650;28;806;-81
2021/10/22 01:11:58;;;;;;;;;;;;;;;;;;347249;28;806;-80
2021/10/22 01:12:09;;;;;;;;;;;;;;;;;;347147;28;987;-79
2021/10/22 01:12:35;;;;;;;;;;;;;;;;;;345873;28;890;-81
2021/10/22 01:12:45;;;;;;;;;;;;;;;;;;345819;28;941;-80
2021/10/22 01:13:11;;;;;;;;;;;;;;;;;;343182;28;1187;-80
2021/10/22 01:13:21;;;;;;;;;;;;;;;;;;344408;28;997;-81
2021/10/22 01:13:31;;;;;;;;;;;;;;;;;;344541;28;985;-81
2021/10/22 01:13:42;;;;;;;;;;;;;;;;;;344583;28;1012;-81
2021/10/22 01:14:18;;;;;;;;;;;;;;;;;;346860;28;992;-81
2021/10/22 01:14:28;;;;;;;;;;;;;;;;;;345927;28;807;-82
2021/10/22 01:14:39;;;;;;;;;;;;;;;;;;344567;28;1035;-80
2021/10/22 01:15:05;;;;;;;;;;;;;;;;;;343177;28;1196;-81
2021/10/22 01:15:15;;;;;;;;;;;;;;;;;;343205;28;820;-81
2021/10/22 01:15:41;;;;;;;;;;;;;;;;;;343280;28;823;-80
2021/10/22 01:16:17;;;;;;;;;;;;;;;;;;345955;28;980;-81
2021/10/22 01:16:28;;;;;;;;;;;;;;;;;;345529;28;1441;-79
2021/10/22 01:16:53;;;;;;;;;;;;;;;;;;345587;28;985;-79
2021/10/22 01:17:33;;;;;;;;;;;;;;;;;;345945;28;964;-80
2021/10/22 01:17:45;;;;;;;;;;;;;;;;;;345817;28;1338;-80
2021/10/22 01:17:56;;;;;;;;;;;;;;;;;;343243;28;874;-80
2021/10/22 01:18:07;;;;;;;;;;;;;;;;;;345956;28;822;-81
2021/10/22 01:18:18;;;;;;;;;;;;;;;;;;345926;28;889;-79
2021/10/22 01:18:29;;;;;;;;;;;;;;;;;;344468;28;1590;-80
2021/10/22 01:18:47;;;;;;;;;;;;;;;;;;344607;28;926;-82
2021/10/22 01:18:57;;;;;;;;;;;;;;;;;;344475;28;1282;-79
2021/10/22 01:19:12;;;;;;;;;;;;;;;;;;345867;28;878;-80
2021/10/22 01:19:37;;;;;;;;;;;;;;;;;;345913;28;794;-82
2021/10/22 01:19:48;;;;;;;;;;;;;;;;;;345912;28;857;-82
2021/10/22 01:19:58;;;;;;;;;;;;;;;;;;344527;28;834;-80
2021/10/22 01:20:12;;;;;;;;;;;;;;;;;;347307;28;806;-80
2021/10/22 01:20:22;;;;;;;;;;;;;;;;;;345815;28;1505;-80
2021/10/22 01:20:48;;;;;;;;;;;;;;;;;;345936;28;1048;-82
2021/10/22 01:21:02;;;;;;;;;;;;;;;;;;345899;28;795;-79
2021/10/22 01:21:12;;;;;;;;;;;;;;;;;;345829;28;1140;-78
2021/10/22 01:21:22;;;;;;;;;;;;;;;;;;345878;28;866;-80
2021/10/22 01:21:33;;;;;;;;;;;;;;;;;;347264;28;901;-81
2021/10/22 01:21:46;;;;;;;;;;;;;;;;;;344461;28;1040;-81
2021/10/22 01:21:56;;;;;;;;;;;;;;;;;;343274;28;803;-82
2021/10/22 01:22:08;;;;;;;;;;;;;;;;;;343276;28;866;-79
2021/10/22 01:22:19;;;;;;;;;;;;;;;;;;344271;28;1361;-81
2021/10/22 01:22:29;;;;;;;;;;;;;;;;;;344498;28;827;-81
2021/10/22 01:22:40;;;;;;;;;;;;;;;;;;345912;28;787;-81
2021/10/22 01:22:50;;;;;;;;;;;;;;;;;;347266;28;1314;-81
2021/10/22 01:23:17;;;;;;;;;;;;;;;;;;344380;28;1474;-80
2021/10/22 01:23:53;;;;;;;;;;;;;;;;;;344430;28;1399;-80
2021/10/22 01:24:04;;;;;;;;;;;;;;;;;;345738;28;1495;-80
2021/10/22 01:24:30;;;;;;;;;;;;;;;;;;345956;28;799;-80
2021/10/22 01:24:40;;;;;;;;;;;;;;;;;;344393;28;1183;-81
2021/10/22 01:24:51;;;;;;;;;;;;;;;;;;344567;28;976;-79
2021/10/22 01:25:04;;;;;;;;;;;;;;;;;;347194;28;1016;-80
2021/10/22 01:25:16;;;;;;;;;;;;;;;;;;347284;28;885;-82
2021/10/22 01:25:26;;;;;;;;;;;;;;;;;;344625;28;893;-81
2021/10/22 01:25:37;;;;;;;;;;;;;;;;;;344550;28;968;-81
2021/10/22 01:26:02;;;;;;;;;;;;;;;;;;345670;28;1487;-81
2021/10/22 01:26:13;;;;;;;;;;;;;;;;;;345893;28;949;-80
2021/10/22 01:26:38;;;;;;;;;;;;;;;;;;345912;28;782;-82
2021/10/22 01:26:49;;;;;;;;;;;;;;;;;;347238;28;980;-83
2021/10/22 01:26:59;;;;;;;;;;;;;;;;;;344297;28;1279;-80
2021/10/22 01:27:25;;;;;;;;;;;;;;;;;;344558;28;945;-81
2021/10/22 01:27:36;;;;;;;;;;;;;;;;;;343494;28;834;-82
2021/10/22 01:27:49;;;;;;;;;;;;;;;;;;344549;28;894;-83
2021/10/22 01:27:59;;;;;;;;;;;;;;;;;;345785;28;1522;-83
2021/10/22 01:28:10;;;;;;;;;;;;;;;;;;345983;28;786;-83
2021/10/22 01:28:20;;;;;;;;;;;;;;;;;;347189;28;805;-82
2021/10/22 01:28:34;;;;;;;;;;;;;;;;;;345955;28;897;-83
2021/10/22 01:29:12;;;;;;;;;;;;;;;;;;344517;28;1421;-82
2021/10/22 01:29:23;;;;;;;;;;;;;;;;;;345921;28;1005;-83
2021/10/22 01:29:34;;;;;;;;;;;;;;;;;;345890;28;921;-83
2021/10/22 01:29:56;;;;;;;;;;;;;;;;;;343588;28;925;-82
2021/10/22 01:30:07;;;;;;;;;;;;;;;;;;344362;28;1292;-83
2021/10/22 01:30:18;;;;;;;;;;;;;;;;;;344355;28;1274;-82
2021/10/22 01:30:43;;;;;;;;;;;;;;;;;;344487;28;989;-81
2021/10/22 01:31:21;;;;;;;;;;;;;;;;;;345868;28;1178;-82
2021/10/22 01:32:18;;;;;;;;;;;;;;;;;;345448;28;921;-83
2021/10/22 01:32:30;;;;;;;;;;;;;;;;;;345877;28;834;-82
2021/10/22 01:32:57;;;;;;;;;;;;;;;;;;344435;28;933;-83
2021/10/22 01:33:08;;;;;;;;;;;;;;;;;;344425;28;1262;-80
2021/10/22 01:33:18;;;;;;;;;;;;;;;;;;344525;28;1000;-80
2021/10/22 01:33:29;;;;;;;;;;;;;;;;;;345876;28;787;-80
2021/10/22 01:33:39;;;;;;;;;;;;;;;;;;345962;28;870;-81
2021/10/22 01:33:49;;;;;;;;;;;;;;;;;;345882;28;1000;-79
2021/10/22 01:34:20;;;;;;;;;;;;;;;;;;344489;28;1114;-82
2021/10/22 01:34:30;;;;;;;;;;;;;;;;;;343132;28;981;-82
2021/10/22 01:35:22;;;;;;;;;;;;;;;;;;344167;28;870;-83
2021/10/22 01:35:33;;;;;;;;;;;;;;;;;;344407;28;1609;-83
2021/10/22 01:35:44;;;;;;;;;;;;;;;;;;345920;28;854;-79
2021/10/22 01:36:20;;;;;;;;;;;;;;;;;;344422;28;1169;-81
2021/10/22 01:36:33;;;;;;;;;;;;;;;;;;344467;28;989;-81
2021/10/22 01:36:43;;;;;;;;;;;;;;;;;;345861;28;901;-80
2021/10/22 01:36:54;;;;;;;;;;;;;;;;;;345857;28;846;-81
2021/10/22 01:37:04;;;;;;;;;;;;;;;;;;345914;28;1036;-82
2021/10/22 01:37:15;;;;;;;;;;;;;;;;;;341781;29;926;-82
2021/10/22 01:37:25;;;;;;;;;;;;;;;;;;344618;28;929;-81
2021/10/22 01:37:36;;;;;;;;;;;;;;;;;;344434;28;805;-82
2021/10/22 01:37:52;;;;;;;;;;;;;;;;;;345748;28;786;-82
2021/10/22 01:38:03;;;;;;;;;;;;;;;;;;344573;28;917;-81
2021/10/22 01:38:13;;;;;;;;;;;;;;;;;;345915;28;818;-82
2021/10/22 01:38:25;;;;;;;;;;;;;;;;;;344577;28;850;-82
2021/10/22 01:38:35;;;;;;;;;;;;;;;;;;344540;28;838;-80
2021/10/22 01:38:46;;;;;;;;;;;;;;;;;;344557;28;952;-82
2021/10/22 01:38:57;;;;;;;;;;;;;;;;;;345813;28;1470;-83
2021/10/22 01:39:22;;;;;;;;;;;;;;;;;;345865;28;997;-82
2021/10/22 01:40:14;;;;;;;;;;;;;;;;;;345892;28;783;-81
2021/10/22 01:40:25;;;;;;;;;;;;;;;;;;347242;28;968;-82
2021/10/22 01:40:35;;;;;;;;;;;;;;;;;;347298;28;996;-81
2021/10/22 01:41:01;;;;;;;;;;;;;;;;;;346997;28;1432;-81
2021/10/22 01:41:12;;;;;;;;;;;;;;;;;;347302;28;814;-82
2021/10/22 01:41:22;;;;;;;;;;;;;;;;;;344480;28;1456;-81
2021/10/22 01:41:33;;;;;;;;;;;;;;;;;;343113;28;1276;-82
2021/10/22 01:41:43;;;;;;;;;;;;;;;;;;344440;28;906;-82
2021/10/22 01:41:53;;;;;;;;;;;;;;;;;;345901;28;925;-82
2021/10/22 01:42:23;;;;;;;;;;;;;;;;;;344448;28;1227;-82
2021/10/22 01:42:34;;;;;;;;;;;;;;;;;;344525;28;989;-81
2021/10/22 01:42:44;;;;;;;;;;;;;;;;;;345744;28;980;-79
2021/10/22 01:43:10;;;;;;;;;;;;;;;;;;344430;28;778;-79
2021/10/22 01:43:21;;;;;;;;;;;;;;;;;;344536;28;1004;-81
2021/10/22 01:43:31;;;;;;;;;;;;;;;;;;340478;29;1407;-83
2021/10/22 01:43:43;;;;;;;;;;;;;;;;;;344172;28;1483;-81
2021/10/22 01:43:55;;;;;;;;;;;;;;;;;;344181;28;1281;-81
2021/10/22 01:44:07;;;;;;;;;;;;;;;;;;344430;28;1326;-82
2021/10/22 01:44:23;;;;;;;;;;;;;;;;;;343161;28;953;-81
2021/10/22 01:44:36;;;;;;;;;;;;;;;;;;345915;28;902;-82
2021/10/22 01:44:47;;;;;;;;;;;;;;;;;;345844;28;987;-82
2021/10/22 01:45:00;;;;;;;;;;;;;;;;;;345871;28;1022;-81
2021/10/22 01:45:16;;;;;;;;;;;;;;;;;;347108;28;909;-82
2021/10/22 01:45:27;;;;;;;;;;;;;;;;;;345813;28;1428;-81
2021/10/22 01:45:38;;;;;;;;;;;;;;;;;;345855;28;874;-80
2021/10/22 01:45:48;;;;;;;;;;;;;;;;;;343095;28;1148;-82
2021/10/22 01:46:08;;;;;;;;;;;;;;;;;;347260;28;913;-82
2021/10/22 01:46:18;;;;;;;;;;;;;;;;;;347312;28;877;-81
2021/10/22 01:46:29;;;;;;;;;;;;;;;;;;345704;28;1332;-81
2021/10/22 01:46:39;;;;;;;;;;;;;;;;;;344439;28;1366;-82
2021/10/22 01:47:05;;;;;;;;;;;;;;;;;;344555;28;861;-81
2021/10/22 01:47:17;;;;;;;;;;;;;;;;;;344485;28;863;-81
2021/10/22 01:47:27;;;;;;;;;;;;;;;;;;344493;28;945;-82
2021/10/22 01:47:38;;;;;;;;;;;;;;;;;;344488;28;929;-82
2021/10/22 01:48:30;;;;;;;;;;;;;;;;;;344481;28;973;-81
2021/10/22 01:48:49;;;;;;;;;;;;;;;;;;341834;28;1510;-83
2021/10/22 01:49:15;;;;;;;;;;;;;;;;;;344542;28;973;-82
2021/10/22 01:49:25;;;;;;;;;;;;;;;;;;345546;28;933;-82
2021/10/22 01:50:17;;;;;;;;;;;;;;;;;;347219;28;853;-81
2021/10/22 01:50:28;;;;;;;;;;;;;;;;;;347243;28;1003;-81
2021/10/22 01:50:59;;;;;;;;;;;;;;;;;;342190;28;999;-82
2021/10/22 01:51:35;;;;;;;;;;;;;;;;;;340845;29;982;-80
2021/10/22 01:51:45;;;;;;;;;;;;;;;;;;340511;29;815;-79
2021/10/22 01:51:55;;;;;;;;;;;;;;;;;;341755;29;1903;-83
2021/10/22 01:52:32;;;;;;;;;;;;;;;;;;342244;28;1154;-82
2021/10/22 01:52:45;;;;;;;;;;;;;;;;;;344435;28;1076;-81
2021/10/22 01:53:05;;;;;;;;;;;;;;;;;;344311;28;966;-82
2021/10/22 01:53:16;;;;;;;;;;;;;;;;;;343042;28;1337;-82
2021/10/22 01:53:26;;;;;;;;;;;;;;;;;;339108;29;1369;-82
2021/10/22 01:53:39;;;;;;;;;;;;;;;;;;340461;29;1020;-82
2021/10/22 01:53:50;;;;;;;;;;;;;;;;;;339198;29;851;-81
2021/10/22 01:54:16;;;;;;;;;;;;;;;;;;339068;29;1193;-82
2021/10/22 01:54:26;;;;;;;;;;;;;;;;;;339228;29;906;-83
2021/10/22 01:54:36;;;;;;;;;;;;;;;;;;340458;29;1555;-81
2021/10/22 01:54:47;;;;;;;;;;;;;;;;;;340522;29;819;-82
2021/10/22 01:54:57;;;;;;;;;;;;;;;;;;339050;29;1014;-81
2021/10/22 01:55:09;;;;;;;;;;;;;;;;;;340379;29;811;-80
2021/10/22 01:55:19;;;;;;;;;;;;;;;;;;340515;29;1005;-83
2021/10/22 01:55:30;;;;;;;;;;;;;;;;;;339129;29;1673;-82
2021/10/22 01:55:40;;;;;;;;;;;;;;;;;;341833;29;803;-83
2021/10/22 01:56:06;;;;;;;;;;;;;;;;;;341824;29;997;-83
2021/10/22 01:56:28;;;;;;;;;;;;;;;;;;341786;29;890;-81
2021/10/22 01:56:39;;;;;;;;;;;;;;;;;;340502;29;958;-83
2021/10/22 01:56:50;;;;;;;;;;;;;;;;;;341727;28;961;-80
2021/10/22 01:57:35;;;;;;;;;;;;;;;;;;341738;29;875;-80